sensor_id;sensor_type;location;lat;lon;timestamp;temperature;humidity
10828;DHT22;5467;59.334;13.512;2023-02-19T00:00:12;-0.50;99.90
10828;DHT22;5467;59.334;13.512;2023-02-19T00:02:41;-0.50;99.90
10828;DHT22;5467;59.334;13.512;2023-02-19T00:05:10;-0.50;99.90
10828;DHT22;5467;59.334;13.512;2023-02-19T00:07:37;-0.60;99.90
10828;DHT22;5467;59.334;13.512;2023-02-19T00:10:04;-0.50;99.90
10828;DHT22;5467;59.334;13.512;2023-02-19T00:12:31;-0.70;99.90
10828;DHT22;5467;59.334;13.512;2023-02-19T00:15:00;-0.80;99.90
10828;DHT22;5467;59.334;13.512;2023-02-19T00:17:27;-0.80;99.90
10828;DHT22;5467;59.334;13.512;2023-02-19T00:19:54;-0.80;99.90
10828;DHT22;5467;59.334;13.512;2023-02-19T00:22:21;-0.80;99.90
10828;DHT22;5467;59.334;13.512;2023-02-19T00:24:48;-0.80;99.90
10828;DHT22;5467;59.334;13.512;2023-02-19T00:27:15;-0.80;99.90
10828;DHT22;5467;59.334;13.512;2023-02-19T00:29:42;-0.80;99.90
10828;DHT22;5467;59.334;13.512;2023-02-19T00:32:11;-0.80;99.90
10828;DHT22;5467;59.334;13.512;2023-02-19T00:34:38;-0.80;99.90
10828;DHT22;5467;59.334;13.512;2023-02-19T00:37:05;-0.70;99.90
10828;DHT22;5467;59.334;13.512;2023-02-19T00:39:32;-0.80;99.90
10828;DHT22;5467;59.334;13.512;2023-02-19T00:41:59;-0.80;99.90
10828;DHT22;5467;59.334;13.512;2023-02-19T00:44:27;-0.80;99.90
10828;DHT22;5467;59.334;13.512;2023-02-19T00:46:54;-0.70;99.90
10828;DHT22;5467;59.334;13.512;2023-02-19T00:49:23;-0.70;99.90
10828;DHT22;5467;59.334;13.512;2023-02-19T00:51:51;-0.70;99.90
10828;DHT22;5467;59.334;13.512;2023-02-19T00:54:19;-0.80;99.90
10828;DHT22;5467;59.334;13.512;2023-02-19T00:56:47;-0.80;99.90
10828;DHT22;5467;59.334;13.512;2023-02-19T00:59:15;-0.90;99.90
10828;DHT22;5467;59.334;13.512;2023-02-19T01:01:43;-0.80;99.90
10828;DHT22;5467;59.334;13.512;2023-02-19T01:04:10;-0.90;99.90
10828;DHT22;5467;59.334;13.512;2023-02-19T01:06:39;-0.90;99.90
10828;DHT22;5467;59.334;13.512;2023-02-19T01:09:07;-0.90;99.90
10828;DHT22;5467;59.334;13.512;2023-02-19T01:11:34;-0.90;99.90
10828;DHT22;5467;59.334;13.512;2023-02-19T01:14:02;-0.90;99.90
10828;DHT22;5467;59.334;13.512;2023-02-19T01:16:29;-0.80;99.90
10828;DHT22;5467;59.334;13.512;2023-02-19T01:18:57;-0.90;99.90
10828;DHT22;5467;59.334;13.512;2023-02-19T01:21:25;-0.90;99.90
10828;DHT22;5467;59.334;13.512;2023-02-19T01:23:55;-1.00;99.90
10828;DHT22;5467;59.334;13.512;2023-02-19T01:26:24;-1.10;99.90
10828;DHT22;5467;59.334;13.512;2023-02-19T01:28:51;-1.00;99.90
10828;DHT22;5467;59.334;13.512;2023-02-19T01:31:21;-1.00;99.90
10828;DHT22;5467;59.334;13.512;2023-02-19T01:33:51;-1.00;99.90
10828;DHT22;5467;59.334;13.512;2023-02-19T01:36:18;-0.90;99.90
10828;DHT22;5467;59.334;13.512;2023-02-19T01:38:46;-0.90;99.90
10828;DHT22;5467;59.334;13.512;2023-02-19T01:41:17;-0.90;99.90
10828;DHT22;5467;59.334;13.512;2023-02-19T01:44:01;-0.90;99.90
10828;DHT22;5467;59.334;13.512;2023-02-19T01:46:30;-1.00;99.90
10828;DHT22;5467;59.334;13.512;2023-02-19T01:49:01;-0.90;99.90
10828;DHT22;5467;59.334;13.512;2023-02-19T01:51:31;-1.00;99.90
10828;DHT22;5467;59.334;13.512;2023-02-19T01:54:01;-1.00;99.90
10828;DHT22;5467;59.334;13.512;2023-02-19T01:56:33;-1.00;99.90
10828;DHT22;5467;59.334;13.512;2023-02-19T01:59:03;-0.90;99.90
10828;DHT22;5467;59.334;13.512;2023-02-19T02:01:31;-1.00;99.90
10828;DHT22;5467;59.334;13.512;2023-02-19T02:03:59;-0.90;99.90
10828;DHT22;5467;59.334;13.512;2023-02-19T02:06:29;-0.90;99.90
10828;DHT22;5467;59.334;13.512;2023-02-19T02:08:57;-1.00;99.90
10828;DHT22;5467;59.334;13.512;2023-02-19T02:11:47;-1.10;99.90
10828;DHT22;5467;59.334;13.512;2023-02-19T02:14:15;-1.10;99.90
10828;DHT22;5467;59.334;13.512;2023-02-19T02:16:51;-1.10;99.90
10828;DHT22;5467;59.334;13.512;2023-02-19T02:19:30;-1.20;99.90
10828;DHT22;5467;59.334;13.512;2023-02-19T02:22:06;-1.20;99.90
10828;DHT22;5467;59.334;13.512;2023-02-19T02:27:57;-1.20;99.90
10828;DHT22;5467;59.334;13.512;2023-02-19T02:30:50;-1.10;99.90
10828;DHT22;5467;59.334;13.512;2023-02-19T02:33:25;-1.20;99.90
10828;DHT22;5467;59.334;13.512;2023-02-19T02:35:58;-1.00;99.90
10828;DHT22;5467;59.334;13.512;2023-02-19T02:38:29;-1.00;99.90
10828;DHT22;5467;59.334;13.512;2023-02-19T02:40:57;-1.10;99.90
10828;DHT22;5467;59.334;13.512;2023-02-19T02:43:25;-1.10;99.90
10828;DHT22;5467;59.334;13.512;2023-02-19T02:45:54;-1.10;99.90
10828;DHT22;5467;59.334;13.512;2023-02-19T02:48:26;-1.10;99.90
10828;DHT22;5467;59.334;13.512;2023-02-19T02:50:57;-1.20;99.90
10828;DHT22;5467;59.334;13.512;2023-02-19T02:53:29;-1.20;99.90
10828;DHT22;5467;59.334;13.512;2023-02-19T02:56:16;-1.30;99.90
10828;DHT22;5467;59.334;13.512;2023-02-19T02:58:45;-1.30;99.90
10828;DHT22;5467;59.334;13.512;2023-02-19T03:01:17;-1.30;99.90
10828;DHT22;5467;59.334;13.512;2023-02-19T03:04:06;-1.30;99.90
10828;DHT22;5467;59.334;13.512;2023-02-19T03:06:35;-1.30;99.90
10828;DHT22;5467;59.334;13.512;2023-02-19T03:09:08;-1.30;99.90
10828;DHT22;5467;59.334;13.512;2023-02-19T03:11:38;-1.30;99.90
10828;DHT22;5467;59.334;13.512;2023-02-19T03:14:28;-1.30;99.90
10828;DHT22;5467;59.334;13.512;2023-02-19T03:17:19;-1.30;99.90
10828;DHT22;5467;59.334;13.512;2023-02-19T03:20:08;-1.40;99.90
10828;DHT22;5467;59.334;13.512;2023-02-19T03:22:37;-1.40;99.90
10828;DHT22;5467;59.334;13.512;2023-02-19T03:25:09;-1.40;99.90
10828;DHT22;5467;59.334;13.512;2023-02-19T03:27:56;-1.40;99.90
10828;DHT22;5467;59.334;13.512;2023-02-19T03:30:28;-1.50;99.90
10828;DHT22;5467;59.334;13.512;2023-02-19T03:33:00;-1.50;99.90
10828;DHT22;5467;59.334;13.512;2023-02-19T03:35:35;-1.60;99.90
10828;DHT22;5467;59.334;13.512;2023-02-19T03:38:07;-1.50;99.90
10828;DHT22;5467;59.334;13.512;2023-02-19T03:40:41;-1.60;99.90
10828;DHT22;5467;59.334;13.512;2023-02-19T03:43:15;-1.60;99.90
10828;DHT22;5467;59.334;13.512;2023-02-19T03:45:48;-1.60;99.90
10828;DHT22;5467;59.334;13.512;2023-02-19T03:48:28;-1.60;99.90
10828;DHT22;5467;59.334;13.512;2023-02-19T03:51:16;-1.60;99.90
10828;DHT22;5467;59.334;13.512;2023-02-19T03:53:52;-1.60;99.90
10828;DHT22;5467;59.334;13.512;2023-02-19T03:56:27;-1.60;99.90
10828;DHT22;5467;59.334;13.512;2023-02-19T03:59:02;-1.50;99.90
10828;DHT22;5467;59.334;13.512;2023-02-19T04:01:38;-1.50;99.90
10828;DHT22;5467;59.334;13.512;2023-02-19T04:04:15;-1.60;99.90
10828;DHT22;5467;59.334;13.512;2023-02-19T04:06:47;-1.60;99.90
10828;DHT22;5467;59.334;13.512;2023-02-19T04:09:18;-1.60;99.90
10828;DHT22;5467;59.334;13.512;2023-02-19T04:11:47;-1.60;99.90
10828;DHT22;5467;59.334;13.512;2023-02-19T04:14:18;-1.50;99.90
10828;DHT22;5467;59.334;13.512;2023-02-19T04:16:50;-1.50;99.90
10828;DHT22;5467;59.334;13.512;2023-02-19T04:19:23;-1.40;99.90
10828;DHT22;5467;59.334;13.512;2023-02-19T04:21:52;-1.50;99.90
10828;DHT22;5467;59.334;13.512;2023-02-19T04:24:23;-1.50;99.90
10828;DHT22;5467;59.334;13.512;2023-02-19T04:26:53;-1.60;99.90
10828;DHT22;5467;59.334;13.512;2023-02-19T04:29:20;-1.70;99.90
10828;DHT22;5467;59.334;13.512;2023-02-19T04:31:48;-1.60;99.90
10828;DHT22;5467;59.334;13.512;2023-02-19T04:34:15;-1.60;99.90
10828;DHT22;5467;59.334;13.512;2023-02-19T04:36:43;-1.60;99.90
10828;DHT22;5467;59.334;13.512;2023-02-19T04:39:10;-1.60;99.90
10828;DHT22;5467;59.334;13.512;2023-02-19T04:41:37;-1.60;99.90
10828;DHT22;5467;59.334;13.512;2023-02-19T04:44:04;-1.70;99.90
10828;DHT22;5467;59.334;13.512;2023-02-19T04:46:32;-1.70;99.90
10828;DHT22;5467;59.334;13.512;2023-02-19T04:48:59;-1.70;99.90
10828;DHT22;5467;59.334;13.512;2023-02-19T04:51:26;-1.70;99.90
10828;DHT22;5467;59.334;13.512;2023-02-19T04:53:55;-1.70;99.90
10828;DHT22;5467;59.334;13.512;2023-02-19T04:56:22;-1.80;99.90
10828;DHT22;5467;59.334;13.512;2023-02-19T04:58:50;-1.80;99.90
10828;DHT22;5467;59.334;13.512;2023-02-19T05:01:17;-1.80;99.90
10828;DHT22;5467;59.334;13.512;2023-02-19T05:03:44;-1.70;99.90
10828;DHT22;5467;59.334;13.512;2023-02-19T05:06:12;-1.70;99.90
10828;DHT22;5467;59.334;13.512;2023-02-19T05:08:40;-1.70;99.90
10828;DHT22;5467;59.334;13.512;2023-02-19T05:11:10;-1.70;99.90
10828;DHT22;5467;59.334;13.512;2023-02-19T05:13:38;-1.70;99.90
10828;DHT22;5467;59.334;13.512;2023-02-19T05:16:07;-1.70;99.90
10828;DHT22;5467;59.334;13.512;2023-02-19T05:18:38;-1.70;99.90
10828;DHT22;5467;59.334;13.512;2023-02-19T05:21:05;-1.80;99.90
10828;DHT22;5467;59.334;13.512;2023-02-19T05:23:32;-1.80;99.90
10828;DHT22;5467;59.334;13.512;2023-02-19T05:26:04;-1.90;99.90
10828;DHT22;5467;59.334;13.512;2023-02-19T05:28:32;-1.80;99.90
10828;DHT22;5467;59.334;13.512;2023-02-19T05:31:04;-1.80;99.90
10828;DHT22;5467;59.334;13.512;2023-02-19T05:33:32;-1.80;99.90
10828;DHT22;5467;59.334;13.512;2023-02-19T05:36:04;-1.90;99.90
10828;DHT22;5467;59.334;13.512;2023-02-19T05:38:33;-2.00;99.90
10828;DHT22;5467;59.334;13.512;2023-02-19T05:41:08;-2.00;99.90
10828;DHT22;5467;59.334;13.512;2023-02-19T05:43:37;-2.10;99.90
10828;DHT22;5467;59.334;13.512;2023-02-19T05:46:05;-2.10;99.90
10828;DHT22;5467;59.334;13.512;2023-02-19T05:48:33;-2.10;99.90
10828;DHT22;5467;59.334;13.512;2023-02-19T05:51:01;-2.00;99.90
10828;DHT22;5467;59.334;13.512;2023-02-19T05:53:28;-2.10;99.90
10828;DHT22;5467;59.334;13.512;2023-02-19T05:55:55;-2.10;99.90
10828;DHT22;5467;59.334;13.512;2023-02-19T05:58:23;-2.10;99.90
10828;DHT22;5467;59.334;13.512;2023-02-19T06:00:52;-2.20;99.90
10828;DHT22;5467;59.334;13.512;2023-02-19T06:03:20;-2.30;99.90
10828;DHT22;5467;59.334;13.512;2023-02-19T06:05:47;-2.30;99.90
10828;DHT22;5467;59.334;13.512;2023-02-19T06:08:15;-2.30;99.90
10828;DHT22;5467;59.334;13.512;2023-02-19T06:10:43;-2.30;99.90
10828;DHT22;5467;59.334;13.512;2023-02-19T06:13:10;-2.20;99.90
10828;DHT22;5467;59.334;13.512;2023-02-19T06:15:39;-2.10;99.90
10828;DHT22;5467;59.334;13.512;2023-02-19T06:18:08;-2.30;99.90
10828;DHT22;5467;59.334;13.512;2023-02-19T06:20:35;-2.40;99.90
10828;DHT22;5467;59.334;13.512;2023-02-19T06:23:02;-2.40;99.90
10828;DHT22;5467;59.334;13.512;2023-02-19T06:25:29;-2.50;99.90
10828;DHT22;5467;59.334;13.512;2023-02-19T06:27:56;-2.50;99.90
10828;DHT22;5467;59.334;13.512;2023-02-19T06:30:23;-2.50;99.90
10828;DHT22;5467;59.334;13.512;2023-02-19T06:32:51;-2.60;99.90
10828;DHT22;5467;59.334;13.512;2023-02-19T06:35:20;-2.70;99.90
10828;DHT22;5467;59.334;13.512;2023-02-19T06:37:47;-2.80;99.90
10828;DHT22;5467;59.334;13.512;2023-02-19T06:40:18;-2.70;99.90
10828;DHT22;5467;59.334;13.512;2023-02-19T06:42:45;-2.80;99.90
10828;DHT22;5467;59.334;13.512;2023-02-19T06:45:12;-2.90;99.90
10828;DHT22;5467;59.334;13.512;2023-02-19T06:47:40;-2.80;99.90
10828;DHT22;5467;59.334;13.512;2023-02-19T06:50:07;-2.80;99.90
10828;DHT22;5467;59.334;13.512;2023-02-19T06:52:36;-2.80;99.90
10828;DHT22;5467;59.334;13.512;2023-02-19T06:55:03;-2.70;99.90
10828;DHT22;5467;59.334;13.512;2023-02-19T06:57:30;-2.60;99.90
10828;DHT22;5467;59.334;13.512;2023-02-19T06:59:57;-2.40;99.90
10828;DHT22;5467;59.334;13.512;2023-02-19T07:02:25;-2.30;99.90
10828;DHT22;5467;59.334;13.512;2023-02-19T07:04:52;-2.20;99.90
10828;DHT22;5467;59.334;13.512;2023-02-19T07:07:19;-2.10;99.90
10828;DHT22;5467;59.334;13.512;2023-02-19T07:09:48;-2.00;99.90
10828;DHT22;5467;59.334;13.512;2023-02-19T07:12:15;-2.00;99.90
10828;DHT22;5467;59.334;13.512;2023-02-19T07:14:42;-1.90;99.90
10828;DHT22;5467;59.334;13.512;2023-02-19T07:17:09;-2.00;99.90
10828;DHT22;5467;59.334;13.512;2023-02-19T07:19:36;-2.00;99.90
10828;DHT22;5467;59.334;13.512;2023-02-19T07:22:03;-2.00;99.90
10828;DHT22;5467;59.334;13.512;2023-02-19T07:24:30;-2.00;99.90
10828;DHT22;5467;59.334;13.512;2023-02-19T07:26:59;-2.00;99.90
10828;DHT22;5467;59.334;13.512;2023-02-19T07:29:26;-2.00;99.90
10828;DHT22;5467;59.334;13.512;2023-02-19T07:31:53;-1.90;99.90
10828;DHT22;5467;59.334;13.512;2023-02-19T07:34:20;-1.70;99.90
10828;DHT22;5467;59.334;13.512;2023-02-19T07:36:47;-1.70;99.90
10828;DHT22;5467;59.334;13.512;2023-02-19T07:39:14;-1.70;99.90
10828;DHT22;5467;59.334;13.512;2023-02-19T07:41:41;-1.50;99.90
10828;DHT22;5467;59.334;13.512;2023-02-19T07:44:10;-1.50;99.90
10828;DHT22;5467;59.334;13.512;2023-02-19T07:46:41;-1.40;99.90
10828;DHT22;5467;59.334;13.512;2023-02-19T07:49:08;-1.20;99.90
10828;DHT22;5467;59.334;13.512;2023-02-19T07:51:36;-1.10;99.90
10828;DHT22;5467;59.334;13.512;2023-02-19T07:54:04;-1.10;99.90
10828;DHT22;5467;59.334;13.512;2023-02-19T07:56:32;-1.20;99.90
10828;DHT22;5467;59.334;13.512;2023-02-19T07:58:59;-1.20;99.90
10828;DHT22;5467;59.334;13.512;2023-02-19T08:01:28;-1.30;99.90
10828;DHT22;5467;59.334;13.512;2023-02-19T08:04:10;-1.20;99.90
10828;DHT22;5467;59.334;13.512;2023-02-19T08:06:37;-1.20;99.90
10828;DHT22;5467;59.334;13.512;2023-02-19T08:09:05;-1.20;99.90
10828;DHT22;5467;59.334;13.512;2023-02-19T08:11:34;-1.20;99.90
10828;DHT22;5467;59.334;13.512;2023-02-19T08:14:18;-1.30;99.90
10828;DHT22;5467;59.334;13.512;2023-02-19T08:16:50;-1.30;99.90
10828;DHT22;5467;59.334;13.512;2023-02-19T08:19:18;-1.30;99.90
10828;DHT22;5467;59.334;13.512;2023-02-19T08:21:45;-1.20;99.90
10828;DHT22;5467;59.334;13.512;2023-02-19T08:24:12;-1.20;99.90
10828;DHT22;5467;59.334;13.512;2023-02-19T08:26:39;-1.10;99.90
10828;DHT22;5467;59.334;13.512;2023-02-19T08:29:06;-1.10;99.90
10828;DHT22;5467;59.334;13.512;2023-02-19T08:31:34;-0.90;99.90
10828;DHT22;5467;59.334;13.512;2023-02-19T08:34:02;-0.80;99.90
10828;DHT22;5467;59.334;13.512;2023-02-19T08:36:29;-0.80;99.90
10828;DHT22;5467;59.334;13.512;2023-02-19T08:38:57;-0.70;99.90
10828;DHT22;5467;59.334;13.512;2023-02-19T08:41:24;-0.60;99.90
10828;DHT22;5467;59.334;13.512;2023-02-19T08:43:51;-0.50;99.90
10828;DHT22;5467;59.334;13.512;2023-02-19T08:46:18;-0.40;99.90
10828;DHT22;5467;59.334;13.512;2023-02-19T08:48:45;-0.40;99.90
10828;DHT22;5467;59.334;13.512;2023-02-19T08:51:14;-0.40;99.90
10828;DHT22;5467;59.334;13.512;2023-02-19T08:53:41;-0.30;99.90
10828;DHT22;5467;59.334;13.512;2023-02-19T08:56:10;-0.30;99.90
10828;DHT22;5467;59.334;13.512;2023-02-19T08:58:38;-0.30;99.90
10828;DHT22;5467;59.334;13.512;2023-02-19T09:01:07;-0.10;99.90
10828;DHT22;5467;59.334;13.512;2023-02-19T09:03:35;-0.10;99.90
10828;DHT22;5467;59.334;13.512;2023-02-19T09:06:03;0.10;99.90
10828;DHT22;5467;59.334;13.512;2023-02-19T09:08:31;0.10;99.90
10828;DHT22;5467;59.334;13.512;2023-02-19T09:10:59;0.10;99.90
10828;DHT22;5467;59.334;13.512;2023-02-19T09:13:26;0.20;99.90
10828;DHT22;5467;59.334;13.512;2023-02-19T09:15:53;0.40;99.90
10828;DHT22;5467;59.334;13.512;2023-02-19T09:18:21;0.50;99.90
10828;DHT22;5467;59.334;13.512;2023-02-19T09:20:49;0.60;99.90
10828;DHT22;5467;59.334;13.512;2023-02-19T09:23:16;0.60;99.90
10828;DHT22;5467;59.334;13.512;2023-02-19T09:25:44;0.70;99.90
10828;DHT22;5467;59.334;13.512;2023-02-19T09:28:11;0.80;99.90
10828;DHT22;5467;59.334;13.512;2023-02-19T09:30:38;0.90;99.90
10828;DHT22;5467;59.334;13.512;2023-02-19T09:33:05;0.90;99.90
10828;DHT22;5467;59.334;13.512;2023-02-19T09:35:32;1.00;99.90
10828;DHT22;5467;59.334;13.512;2023-02-19T09:38:00;1.00;99.90
10828;DHT22;5467;59.334;13.512;2023-02-19T09:40:29;1.10;99.90
10828;DHT22;5467;59.334;13.512;2023-02-19T09:42:58;1.10;99.90
10828;DHT22;5467;59.334;13.512;2023-02-19T09:45:26;1.20;99.90
10828;DHT22;5467;59.334;13.512;2023-02-19T09:47:54;1.30;99.90
10828;DHT22;5467;59.334;13.512;2023-02-19T09:50:26;1.40;99.90
10828;DHT22;5467;59.334;13.512;2023-02-19T09:52:55;1.50;99.90
10828;DHT22;5467;59.334;13.512;2023-02-19T09:55:30;1.50;99.90
10828;DHT22;5467;59.334;13.512;2023-02-19T09:58:13;1.40;99.90
10828;DHT22;5467;59.334;13.512;2023-02-19T10:00:48;1.50;99.90
10828;DHT22;5467;59.334;13.512;2023-02-19T10:03:21;1.70;99.90
10828;DHT22;5467;59.334;13.512;2023-02-19T10:05:50;1.60;99.90
10828;DHT22;5467;59.334;13.512;2023-02-19T10:08:19;1.60;99.90
10828;DHT22;5467;59.334;13.512;2023-02-19T10:10:47;1.60;99.90
10828;DHT22;5467;59.334;13.512;2023-02-19T10:13:18;1.60;99.90
10828;DHT22;5467;59.334;13.512;2023-02-19T10:15:48;1.70;99.90
10828;DHT22;5467;59.334;13.512;2023-02-19T10:18:17;1.90;99.90
10828;DHT22;5467;59.334;13.512;2023-02-19T10:20:45;1.90;99.90
10828;DHT22;5467;59.334;13.512;2023-02-19T10:23:14;1.90;99.90
10828;DHT22;5467;59.334;13.512;2023-02-19T10:25:45;2.00;99.90
10828;DHT22;5467;59.334;13.512;2023-02-19T10:28:16;2.00;99.90
10828;DHT22;5467;59.334;13.512;2023-02-19T10:30:44;2.10;99.90
10828;DHT22;5467;59.334;13.512;2023-02-19T10:33:15;2.10;99.90
10828;DHT22;5467;59.334;13.512;2023-02-19T10:35:54;2.20;99.90
10828;DHT22;5467;59.334;13.512;2023-02-19T10:38:25;2.30;99.90
10828;DHT22;5467;59.334;13.512;2023-02-19T10:41:03;2.30;99.90
10828;DHT22;5467;59.334;13.512;2023-02-19T10:43:35;2.40;99.90
10828;DHT22;5467;59.334;13.512;2023-02-19T10:46:06;2.40;99.90
10828;DHT22;5467;59.334;13.512;2023-02-19T10:48:36;2.40;99.90
10828;DHT22;5467;59.334;13.512;2023-02-19T10:51:07;2.40;99.90
10828;DHT22;5467;59.334;13.512;2023-02-19T10:53:42;2.50;99.90
10828;DHT22;5467;59.334;13.512;2023-02-19T10:56:12;2.60;99.90
10828;DHT22;5467;59.334;13.512;2023-02-19T10:58:41;2.80;99.90
10828;DHT22;5467;59.334;13.512;2023-02-19T11:01:17;2.70;99.90
10828;DHT22;5467;59.334;13.512;2023-02-19T11:03:46;2.60;99.90
10828;DHT22;5467;59.334;13.512;2023-02-19T11:06:15;2.60;99.90
10828;DHT22;5467;59.334;13.512;2023-02-19T11:08:52;2.60;99.90
10828;DHT22;5467;59.334;13.512;2023-02-19T11:11:29;2.70;99.90
10828;DHT22;5467;59.334;13.512;2023-02-19T11:13:59;2.70;99.90
10828;DHT22;5467;59.334;13.512;2023-02-19T11:16:38;2.70;99.90
10828;DHT22;5467;59.334;13.512;2023-02-19T11:19:21;2.90;99.90
10828;DHT22;5467;59.334;13.512;2023-02-19T11:21:50;2.90;99.90
10828;DHT22;5467;59.334;13.512;2023-02-19T11:24:23;2.80;99.90
10828;DHT22;5467;59.334;13.512;2023-02-19T11:26:52;2.90;99.90
10828;DHT22;5467;59.334;13.512;2023-02-19T11:29:22;2.90;99.90
10828;DHT22;5467;59.334;13.512;2023-02-19T11:31:53;2.90;99.90
10828;DHT22;5467;59.334;13.512;2023-02-19T11:34:27;2.90;99.90
10828;DHT22;5467;59.334;13.512;2023-02-19T11:37:10;3.00;99.90
10828;DHT22;5467;59.334;13.512;2023-02-19T11:39:40;3.00;99.90
10828;DHT22;5467;59.334;13.512;2023-02-19T11:42:20;3.00;99.90
10828;DHT22;5467;59.334;13.512;2023-02-19T11:45:05;3.10;99.90
10828;DHT22;5467;59.334;13.512;2023-02-19T11:50:28;3.30;99.90
10828;DHT22;5467;59.334;13.512;2023-02-19T11:53:09;3.40;99.90
10828;DHT22;5467;59.334;13.512;2023-02-19T11:55:48;3.30;99.90
10828;DHT22;5467;59.334;13.512;2023-02-19T11:58:41;3.30;99.90
10828;DHT22;5467;59.334;13.512;2023-02-19T12:01:19;3.40;99.90
10828;DHT22;5467;59.334;13.512;2023-02-19T12:04:17;3.40;99.90
10828;DHT22;5467;59.334;13.512;2023-02-19T12:06:53;3.40;99.90
10828;DHT22;5467;59.334;13.512;2023-02-19T12:09:35;3.40;99.90
10828;DHT22;5467;59.334;13.512;2023-02-19T12:12:23;3.60;99.90
10828;DHT22;5467;59.334;13.512;2023-02-19T12:18:15;3.60;99.90
10828;DHT22;5467;59.334;13.512;2023-02-19T12:20:52;3.60;99.90
10828;DHT22;5467;59.334;13.512;2023-02-19T12:23:41;3.80;99.90
10828;DHT22;5467;59.334;13.512;2023-02-19T12:26:19;3.90;99.90
10828;DHT22;5467;59.334;13.512;2023-02-19T12:29:12;3.90;99.90
10828;DHT22;5467;59.334;13.512;2023-02-19T12:37:43;4.10;99.90
10828;DHT22;5467;59.334;13.512;2023-02-19T12:40:21;4.10;99.90
10828;DHT22;5467;59.334;13.512;2023-02-19T12:43:03;4.20;99.90
10828;DHT22;5467;59.334;13.512;2023-02-19T12:45:36;4.20;99.90
10828;DHT22;5467;59.334;13.512;2023-02-19T12:48:12;4.10;99.90
10828;DHT22;5467;59.334;13.512;2023-02-19T12:50:44;4.00;99.90
10828;DHT22;5467;59.334;13.512;2023-02-19T12:53:23;4.00;99.90
10828;DHT22;5467;59.334;13.512;2023-02-19T12:55:55;4.00;99.90
10828;DHT22;5467;59.334;13.512;2023-02-19T12:58:28;3.90;99.90
10828;DHT22;5467;59.334;13.512;2023-02-19T13:00:57;4.00;99.90
10828;DHT22;5467;59.334;13.512;2023-02-19T13:03:31;4.00;99.90
10828;DHT22;5467;59.334;13.512;2023-02-19T13:06:04;4.10;99.90
10828;DHT22;5467;59.334;13.512;2023-02-19T13:08:37;4.10;99.90
10828;DHT22;5467;59.334;13.512;2023-02-19T13:11:09;3.90;99.90
10828;DHT22;5467;59.334;13.512;2023-02-19T13:13:44;3.90;99.90
10828;DHT22;5467;59.334;13.512;2023-02-19T13:16:17;3.90;99.90
10828;DHT22;5467;59.334;13.512;2023-02-19T13:18:47;3.90;99.90
10828;DHT22;5467;59.334;13.512;2023-02-19T13:21:19;3.90;99.90
10828;DHT22;5467;59.334;13.512;2023-02-19T13:24:03;3.90;99.90
10828;DHT22;5467;59.334;13.512;2023-02-19T13:26:56;4.00;99.90
10828;DHT22;5467;59.334;13.512;2023-02-19T13:29:35;4.00;99.90
10828;DHT22;5467;59.334;13.512;2023-02-19T13:35:19;3.90;99.90
10828;DHT22;5467;59.334;13.512;2023-02-19T13:37:49;3.90;99.90
10828;DHT22;5467;59.334;13.512;2023-02-19T13:40:24;3.90;99.90
10828;DHT22;5467;59.334;13.512;2023-02-19T13:42:54;3.80;99.90
10828;DHT22;5467;59.334;13.512;2023-02-19T13:45:24;3.80;99.90
10828;DHT22;5467;59.334;13.512;2023-02-19T13:48:00;3.90;99.90
10828;DHT22;5467;59.334;13.512;2023-02-19T13:50:29;3.80;99.90
10828;DHT22;5467;59.334;13.512;2023-02-19T13:53:01;3.80;99.90
10828;DHT22;5467;59.334;13.512;2023-02-19T13:55:48;3.70;99.90
10828;DHT22;5467;59.334;13.512;2023-02-19T14:04:24;3.80;99.90
10828;DHT22;5467;59.334;13.512;2023-02-19T14:10:13;3.80;99.90
10828;DHT22;5467;59.334;13.512;2023-02-19T14:13:00;3.70;99.90
10828;DHT22;5467;59.334;13.512;2023-02-19T14:15:40;3.80;99.90
10828;DHT22;5467;59.334;13.512;2023-02-19T14:18:40;3.70;99.90
10828;DHT22;5467;59.334;13.512;2023-02-19T14:21:15;3.70;99.90
10828;DHT22;5467;59.334;13.512;2023-02-19T14:23:44;3.70;99.90
10828;DHT22;5467;59.334;13.512;2023-02-19T14:26:18;3.80;99.90
10828;DHT22;5467;59.334;13.512;2023-02-19T14:28:46;3.80;99.90
10828;DHT22;5467;59.334;13.512;2023-02-19T14:31:27;3.80;99.90
10828;DHT22;5467;59.334;13.512;2023-02-19T14:33:58;3.70;99.90
10828;DHT22;5467;59.334;13.512;2023-02-19T14:36:41;3.80;99.90
10828;DHT22;5467;59.334;13.512;2023-02-19T14:39:16;3.80;99.90
10828;DHT22;5467;59.334;13.512;2023-02-19T14:41:47;3.70;99.90
10828;DHT22;5467;59.334;13.512;2023-02-19T14:44:18;3.60;99.90
10828;DHT22;5467;59.334;13.512;2023-02-19T14:46:53;3.60;99.90
10828;DHT22;5467;59.334;13.512;2023-02-19T14:49:26;3.60;99.90
10828;DHT22;5467;59.334;13.512;2023-02-19T14:51:57;3.50;99.90
10828;DHT22;5467;59.334;13.512;2023-02-19T14:54:34;3.40;99.90
10828;DHT22;5467;59.334;13.512;2023-02-19T14:57:10;3.30;99.90
10828;DHT22;5467;59.334;13.512;2023-02-19T14:59:38;3.40;99.90
10828;DHT22;5467;59.334;13.512;2023-02-19T15:02:14;3.30;99.90
10828;DHT22;5467;59.334;13.512;2023-02-19T15:04:42;3.20;99.90
10828;DHT22;5467;59.334;13.512;2023-02-19T15:07:14;3.20;99.90
10828;DHT22;5467;59.334;13.512;2023-02-19T15:09:44;3.10;99.90
10828;DHT22;5467;59.334;13.512;2023-02-19T15:12:20;3.10;99.90
10828;DHT22;5467;59.334;13.512;2023-02-19T15:14:50;3.10;99.90
10828;DHT22;5467;59.334;13.512;2023-02-19T15:17:24;3.10;99.90
10828;DHT22;5467;59.334;13.512;2023-02-19T15:19:52;3.00;99.90
10828;DHT22;5467;59.334;13.512;2023-02-19T15:22:21;3.00;99.90
10828;DHT22;5467;59.334;13.512;2023-02-19T15:24:50;3.00;99.90
10828;DHT22;5467;59.334;13.512;2023-02-19T15:27:21;3.00;99.90
10828;DHT22;5467;59.334;13.512;2023-02-19T15:29:50;2.90;99.90
10828;DHT22;5467;59.334;13.512;2023-02-19T15:32:21;2.90;99.90
10828;DHT22;5467;59.334;13.512;2023-02-19T15:34:55;2.80;99.90
10828;DHT22;5467;59.334;13.512;2023-02-19T15:37:24;2.70;99.90
10828;DHT22;5467;59.334;13.512;2023-02-19T15:39:52;2.60;99.90
10828;DHT22;5467;59.334;13.512;2023-02-19T15:42:24;2.70;99.90
10828;DHT22;5467;59.334;13.512;2023-02-19T15:44:54;2.60;99.90
10828;DHT22;5467;59.334;13.512;2023-02-19T15:47:26;2.50;99.90
10828;DHT22;5467;59.334;13.512;2023-02-19T15:50:01;2.50;99.90
10828;DHT22;5467;59.334;13.512;2023-02-19T15:52:35;2.50;99.90
10828;DHT22;5467;59.334;13.512;2023-02-19T15:55:17;2.30;99.90
10828;DHT22;5467;59.334;13.512;2023-02-19T15:57:51;2.20;99.90
10828;DHT22;5467;59.334;13.512;2023-02-19T16:00:25;2.10;99.90
10828;DHT22;5467;59.334;13.512;2023-02-19T16:02:54;2.00;99.90
10828;DHT22;5467;59.334;13.512;2023-02-19T16:05:24;1.90;99.90
10828;DHT22;5467;59.334;13.512;2023-02-19T16:08:05;1.80;99.90
10828;DHT22;5467;59.334;13.512;2023-02-19T16:10:33;1.80;99.90
10828;DHT22;5467;59.334;13.512;2023-02-19T16:13:04;1.70;99.90
10828;DHT22;5467;59.334;13.512;2023-02-19T16:15:32;1.60;99.90
10828;DHT22;5467;59.334;13.512;2023-02-19T16:18:00;1.60;99.90
10828;DHT22;5467;59.334;13.512;2023-02-19T16:20:29;1.50;99.90
10828;DHT22;5467;59.334;13.512;2023-02-19T16:22:59;1.50;99.90
10828;DHT22;5467;59.334;13.512;2023-02-19T16:25:29;1.40;99.90
10828;DHT22;5467;59.334;13.512;2023-02-19T16:27:58;1.30;99.90
10828;DHT22;5467;59.334;13.512;2023-02-19T16:30:30;1.30;99.90